sensor_id;sensor_type;location;lat;lon;timestamp;P1;durP1;ratioP1;P2;durP2;ratioP2
7375;SDS011;3728;42.266;24.944;2023-04-03T00:01:26;3.23;;;2.33;;
7375;SDS011;3728;42.266;24.944;2023-04-03T00:03:54;4.83;;;2.20;;
7375;SDS011;3728;42.266;24.944;2023-04-03T00:06:22;2.83;;;1.83;;
7375;SDS011;3728;42.266;24.944;2023-04-03T00:08:53;2.57;;;1.80;;
7375;SDS011;3728;42.266;24.944;2023-04-03T00:11:20;2.50;;;2.00;;
7375;SDS011;3728;42.266;24.944;2023-04-03T00:13:48;3.20;;;2.07;;
7375;SDS011;3728;42.266;24.944;2023-04-03T00:16:16;4.07;;;2.80;;
7375;SDS011;3728;42.266;24.944;2023-04-03T00:18:44;4.23;;;2.87;;
7375;SDS011;3728;42.266;24.944;2023-04-03T00:21:12;2.33;;;2.13;;
7375;SDS011;3728;42.266;24.944;2023-04-03T00:23:41;6.30;;;2.33;;
7375;SDS011;3728;42.266;24.944;2023-04-03T00:26:09;2.57;;;2.00;;
7375;SDS011;3728;42.266;24.944;2023-04-03T00:28:38;3.43;;;2.20;;
7375;SDS011;3728;42.266;24.944;2023-04-03T00:31:06;3.30;;;2.27;;
7375;SDS011;3728;42.266;24.944;2023-04-03T00:33:34;5.77;;;2.93;;
7375;SDS011;3728;42.266;24.944;2023-04-03T00:36:05;5.27;;;3.90;;
7375;SDS011;3728;42.266;24.944;2023-04-03T00:38:36;24.33;;;6.70;;
7375;SDS011;3728;42.266;24.944;2023-04-03T00:41:03;20.50;;;7.10;;
7375;SDS011;3728;42.266;24.944;2023-04-03T00:43:31;14.57;;;6.53;;
7375;SDS011;3728;42.266;24.944;2023-04-03T00:45:59;10.50;;;6.10;;
7375;SDS011;3728;42.266;24.944;2023-04-03T00:48:35;10.83;;;5.33;;
7375;SDS011;3728;42.266;24.944;2023-04-03T00:51:11;11.57;;;5.07;;
7375;SDS011;3728;42.266;24.944;2023-04-03T00:53:46;8.00;;;4.87;;
7375;SDS011;3728;42.266;24.944;2023-04-03T00:56:23;8.63;;;4.77;;
7375;SDS011;3728;42.266;24.944;2023-04-03T00:58:58;10.13;;;5.63;;
7375;SDS011;3728;42.266;24.944;2023-04-03T01:01:36;8.37;;;5.33;;
7375;SDS011;3728;42.266;24.944;2023-04-03T01:04:05;9.30;;;5.37;;
7375;SDS011;3728;42.266;24.944;2023-04-03T01:06:51;6.63;;;4.90;;
7375;SDS011;3728;42.266;24.944;2023-04-03T01:09:19;8.23;;;4.87;;
7375;SDS011;3728;42.266;24.944;2023-04-03T01:11:47;8.40;;;4.80;;
7375;SDS011;3728;42.266;24.944;2023-04-03T01:14:15;6.47;;;4.07;;
7375;SDS011;3728;42.266;24.944;2023-04-03T01:16:51;6.47;;;4.10;;
7375;SDS011;3728;42.266;24.944;2023-04-03T01:19:20;6.07;;;4.27;;
7375;SDS011;3728;42.266;24.944;2023-04-03T01:24:55;12.83;;;6.10;;
7375;SDS011;3728;42.266;24.944;2023-04-03T01:27:22;9.60;;;5.27;;
7375;SDS011;3728;42.266;24.944;2023-04-03T01:29:50;12.80;;;6.10;;
7375;SDS011;3728;42.266;24.944;2023-04-03T01:32:17;15.83;;;7.00;;
7375;SDS011;3728;42.266;24.944;2023-04-03T01:34:45;11.60;;;5.97;;
7375;SDS011;3728;42.266;24.944;2023-04-03T01:37:13;7.97;;;5.90;;
7375;SDS011;3728;42.266;24.944;2023-04-03T01:39:40;6.03;;;4.60;;
7375;SDS011;3728;42.266;24.944;2023-04-03T01:42:10;4.70;;;4.23;;
7375;SDS011;3728;42.266;24.944;2023-04-03T01:44:42;4.00;;;3.60;;
7375;SDS011;3728;42.266;24.944;2023-04-03T01:47:09;5.33;;;4.30;;
7375;SDS011;3728;42.266;24.944;2023-04-03T01:49:39;5.47;;;4.60;;
7375;SDS011;3728;42.266;24.944;2023-04-03T01:52:06;6.73;;;4.70;;
7375;SDS011;3728;42.266;24.944;2023-04-03T01:54:33;5.40;;;4.10;;
7375;SDS011;3728;42.266;24.944;2023-04-03T01:57:01;9.63;;;5.30;;
7375;SDS011;3728;42.266;24.944;2023-04-03T01:59:29;12.03;;;8.53;;
7375;SDS011;3728;42.266;24.944;2023-04-03T02:01:57;11.53;;;7.23;;
7375;SDS011;3728;42.266;24.944;2023-04-03T02:04:24;10.97;;;7.37;;
7375;SDS011;3728;42.266;24.944;2023-04-03T02:06:52;11.63;;;5.90;;
7375;SDS011;3728;42.266;24.944;2023-04-03T02:09:20;6.67;;;5.20;;
7375;SDS011;3728;42.266;24.944;2023-04-03T02:11:48;5.77;;;4.37;;
7375;SDS011;3728;42.266;24.944;2023-04-03T02:14:15;7.00;;;3.63;;
7375;SDS011;3728;42.266;24.944;2023-04-03T02:16:43;6.50;;;3.77;;
7375;SDS011;3728;42.266;24.944;2023-04-03T02:19:10;6.53;;;3.97;;
7375;SDS011;3728;42.266;24.944;2023-04-03T02:21:38;11.50;;;3.27;;
7375;SDS011;3728;42.266;24.944;2023-04-03T02:24:06;4.57;;;3.53;;
7375;SDS011;3728;42.266;24.944;2023-04-03T02:26:34;5.07;;;2.40;;
7375;SDS011;3728;42.266;24.944;2023-04-03T02:29:03;5.73;;;2.57;;
7375;SDS011;3728;42.266;24.944;2023-04-03T02:31:31;7.33;;;2.70;;
7375;SDS011;3728;42.266;24.944;2023-04-03T02:34:00;5.27;;;2.40;;
7375;SDS011;3728;42.266;24.944;2023-04-03T02:36:28;2.70;;;2.27;;
7375;SDS011;3728;42.266;24.944;2023-04-03T02:39:01;3.53;;;2.50;;
7375;SDS011;3728;42.266;24.944;2023-04-03T02:41:28;7.07;;;2.57;;
7375;SDS011;3728;42.266;24.944;2023-04-03T02:44:04;3.40;;;2.20;;
7375;SDS011;3728;42.266;24.944;2023-04-03T02:46:33;3.37;;;2.40;;
7375;SDS011;3728;42.266;24.944;2023-04-03T02:49:02;4.00;;;2.70;;
7375;SDS011;3728;42.266;24.944;2023-04-03T02:51:30;5.60;;;3.10;;
7375;SDS011;3728;42.266;24.944;2023-04-03T02:53:58;5.27;;;3.50;;
7375;SDS011;3728;42.266;24.944;2023-04-03T02:56:29;5.70;;;3.47;;
7375;SDS011;3728;42.266;24.944;2023-04-03T02:58:56;17.27;;;4.43;;
7375;SDS011;3728;42.266;24.944;2023-04-03T03:01:24;9.77;;;5.00;;
7375;SDS011;3728;42.266;24.944;2023-04-03T03:03:54;9.03;;;4.70;;
7375;SDS011;3728;42.266;24.944;2023-04-03T03:06:22;10.93;;;5.63;;
7375;SDS011;3728;42.266;24.944;2023-04-03T03:08:51;26.40;;;14.93;;
7375;SDS011;3728;42.266;24.944;2023-04-03T03:11:19;22.37;;;12.87;;
7375;SDS011;3728;42.266;24.944;2023-04-03T03:13:47;17.23;;;10.43;;
7375;SDS011;3728;42.266;24.944;2023-04-03T03:16:16;18.93;;;10.87;;
7375;SDS011;3728;42.266;24.944;2023-04-03T03:18:43;16.27;;;6.77;;
7375;SDS011;3728;42.266;24.944;2023-04-03T03:21:11;15.07;;;6.63;;
7375;SDS011;3728;42.266;24.944;2023-04-03T03:23:39;17.47;;;5.30;;
7375;SDS011;3728;42.266;24.944;2023-04-03T03:26:10;13.80;;;6.50;;
7375;SDS011;3728;42.266;24.944;2023-04-03T03:28:38;12.57;;;5.63;;
7375;SDS011;3728;42.266;24.944;2023-04-03T03:31:08;11.80;;;5.13;;
7375;SDS011;3728;42.266;24.944;2023-04-03T03:33:38;12.10;;;5.13;;
7375;SDS011;3728;42.266;24.944;2023-04-03T03:36:06;5.60;;;3.83;;
7375;SDS011;3728;42.266;24.944;2023-04-03T03:38:35;3.93;;;2.93;;
7375;SDS011;3728;42.266;24.944;2023-04-03T03:41:03;4.97;;;3.40;;
7375;SDS011;3728;42.266;24.944;2023-04-03T03:43:32;4.00;;;2.93;;
7375;SDS011;3728;42.266;24.944;2023-04-03T03:46:01;5.17;;;3.13;;
7375;SDS011;3728;42.266;24.944;2023-04-03T03:48:29;3.80;;;2.90;;
7375;SDS011;3728;42.266;24.944;2023-04-03T03:50:56;13.27;;;7.60;;
7375;SDS011;3728;42.266;24.944;2023-04-03T03:53:28;49.77;;;23.13;;
7375;SDS011;3728;42.266;24.944;2023-04-03T03:56:01;153.47;;;71.73;;
7375;SDS011;3728;42.266;24.944;2023-04-03T03:58:29;82.90;;;42.63;;
7375;SDS011;3728;42.266;24.944;2023-04-03T04:01:01;37.43;;;18.53;;
7375;SDS011;3728;42.266;24.944;2023-04-03T04:03:39;36.33;;;19.80;;
7375;SDS011;3728;42.266;24.944;2023-04-03T04:06:09;25.60;;;16.37;;
7375;SDS011;3728;42.266;24.944;2023-04-03T04:08:36;23.47;;;15.00;;
7375;SDS011;3728;42.266;24.944;2023-04-03T04:11:06;9.57;;;5.13;;
7375;SDS011;3728;42.266;24.944;2023-04-03T04:13:36;7.30;;;4.70;;
7375;SDS011;3728;42.266;24.944;2023-04-03T04:16:04;5.13;;;3.53;;
7375;SDS011;3728;42.266;24.944;2023-04-03T04:18:33;2.40;;;2.20;;
7375;SDS011;3728;42.266;24.944;2023-04-03T04:21:00;4.63;;;1.80;;
7375;SDS011;3728;42.266;24.944;2023-04-03T04:23:28;4.33;;;1.63;;
7375;SDS011;3728;42.266;24.944;2023-04-03T04:25:57;1.33;;;1.20;;
7375;SDS011;3728;42.266;24.944;2023-04-03T04:28:26;1.63;;;1.50;;
7375;SDS011;3728;42.266;24.944;2023-04-03T04:30:56;0.93;;;0.93;;
7375;SDS011;3728;42.266;24.944;2023-04-03T04:33:25;0.97;;;0.97;;
7375;SDS011;3728;42.266;24.944;2023-04-03T04:35:54;1.97;;;1.07;;
7375;SDS011;3728;42.266;24.944;2023-04-03T04:38:22;15.00;;;3.70;;
7375;SDS011;3728;42.266;24.944;2023-04-03T04:40:51;20.83;;;3.40;;
7375;SDS011;3728;42.266;24.944;2023-04-03T04:43:20;9.57;;;2.07;;
7375;SDS011;3728;42.266;24.944;2023-04-03T04:45:59;10.27;;;1.90;;
7375;SDS011;3728;42.266;24.944;2023-04-03T04:48:36;3.60;;;1.60;;
7375;SDS011;3728;42.266;24.944;2023-04-03T04:51:05;8.67;;;1.70;;
7375;SDS011;3728;42.266;24.944;2023-04-03T04:53:35;2.77;;;1.10;;
7375;SDS011;3728;42.266;24.944;2023-04-03T04:56:03;5.03;;;1.60;;
7375;SDS011;3728;42.266;24.944;2023-04-03T04:58:33;5.33;;;1.70;;
7375;SDS011;3728;42.266;24.944;2023-04-03T05:01:02;2.87;;;2.03;;
7375;SDS011;3728;42.266;24.944;2023-04-03T05:03:36;3.27;;;2.30;;
7375;SDS011;3728;42.266;24.944;2023-04-03T05:06:04;5.27;;;2.40;;
7375;SDS011;3728;42.266;24.944;2023-04-03T05:08:33;12.00;;;7.20;;
7375;SDS011;3728;42.266;24.944;2023-04-03T05:11:02;3.57;;;2.50;;
7375;SDS011;3728;42.266;24.944;2023-04-03T05:13:30;1.30;;;1.20;;
7375;SDS011;3728;42.266;24.944;2023-04-03T05:15:58;2.17;;;1.50;;
7375;SDS011;3728;42.266;24.944;2023-04-03T05:18:26;1.60;;;1.20;;
7375;SDS011;3728;42.266;24.944;2023-04-03T05:20:56;1.40;;;1.30;;
7375;SDS011;3728;42.266;24.944;2023-04-03T05:23:25;2.33;;;1.70;;
7375;SDS011;3728;42.266;24.944;2023-04-03T05:25:54;2.93;;;2.27;;
7375;SDS011;3728;42.266;24.944;2023-04-03T05:28:22;6.23;;;3.90;;
7375;SDS011;3728;42.266;24.944;2023-04-03T05:30:53;8.70;;;5.03;;
7375;SDS011;3728;42.266;24.944;2023-04-03T05:33:31;10.50;;;6.40;;
7375;SDS011;3728;42.266;24.944;2023-04-03T05:36:03;15.40;;;6.80;;
7375;SDS011;3728;42.266;24.944;2023-04-03T05:38:36;11.00;;;4.53;;
7375;SDS011;3728;42.266;24.944;2023-04-03T05:41:04;7.47;;;5.10;;
7375;SDS011;3728;42.266;24.944;2023-04-03T05:43:32;9.07;;;5.83;;
7375;SDS011;3728;42.266;24.944;2023-04-03T05:46:01;18.77;;;12.53;;
7375;SDS011;3728;42.266;24.944;2023-04-03T05:48:29;22.27;;;16.33;;
7375;SDS011;3728;42.266;24.944;2023-04-03T05:50:57;20.97;;;17.17;;
7375;SDS011;3728;42.266;24.944;2023-04-03T05:53:27;23.37;;;16.43;;
7375;SDS011;3728;42.266;24.944;2023-04-03T05:56:01;20.43;;;13.23;;
7375;SDS011;3728;42.266;24.944;2023-04-03T05:58:33;14.63;;;9.20;;
7375;SDS011;3728;42.266;24.944;2023-04-03T06:01:01;12.20;;;7.10;;
7375;SDS011;3728;42.266;24.944;2023-04-03T06:03:29;11.53;;;6.23;;
7375;SDS011;3728;42.266;24.944;2023-04-03T06:05:57;12.27;;;6.00;;
7375;SDS011;3728;42.266;24.944;2023-04-03T06:08:24;11.87;;;5.40;;
7375;SDS011;3728;42.266;24.944;2023-04-03T06:10:52;12.07;;;4.90;;
7375;SDS011;3728;42.266;24.944;2023-04-03T06:13:19;7.20;;;4.83;;
7375;SDS011;3728;42.266;24.944;2023-04-03T06:15:47;10.93;;;5.53;;
7375;SDS011;3728;42.266;24.944;2023-04-03T06:18:15;15.80;;;7.20;;
7375;SDS011;3728;42.266;24.944;2023-04-03T06:20:43;14.27;;;8.00;;
7375;SDS011;3728;42.266;24.944;2023-04-03T06:23:12;7.57;;;4.80;;
7375;SDS011;3728;42.266;24.944;2023-04-03T06:25:40;8.43;;;4.50;;
7375;SDS011;3728;42.266;24.944;2023-04-03T06:28:08;12.17;;;4.90;;
7375;SDS011;3728;42.266;24.944;2023-04-03T06:30:36;12.13;;;5.30;;
7375;SDS011;3728;42.266;24.944;2023-04-03T06:33:04;18.10;;;6.37;;
7375;SDS011;3728;42.266;24.944;2023-04-03T06:35:33;8.83;;;5.30;;
7375;SDS011;3728;42.266;24.944;2023-04-03T06:38:01;12.57;;;6.43;;
7375;SDS011;3728;42.266;24.944;2023-04-03T06:40:34;18.57;;;8.70;;
7375;SDS011;3728;42.266;24.944;2023-04-03T06:43:02;17.00;;;10.43;;
7375;SDS011;3728;42.266;24.944;2023-04-03T06:45:29;16.87;;;12.10;;
7375;SDS011;3728;42.266;24.944;2023-04-03T06:47:57;19.53;;;8.90;;
7375;SDS011;3728;42.266;24.944;2023-04-03T06:50:25;11.73;;;8.13;;
7375;SDS011;3728;42.266;24.944;2023-04-03T06:52:52;20.80;;;8.63;;
7375;SDS011;3728;42.266;24.944;2023-04-03T06:55:20;10.93;;;5.83;;
7375;SDS011;3728;42.266;24.944;2023-04-03T06:57:48;11.67;;;5.40;;
7375;SDS011;3728;42.266;24.944;2023-04-03T07:00:16;8.80;;;4.80;;
7375;SDS011;3728;42.266;24.944;2023-04-03T07:02:44;9.40;;;5.93;;
7375;SDS011;3728;42.266;24.944;2023-04-03T07:05:12;13.40;;;6.47;;
7375;SDS011;3728;42.266;24.944;2023-04-03T07:07:40;6.17;;;4.53;;
7375;SDS011;3728;42.266;24.944;2023-04-03T07:10:07;8.43;;;4.13;;
7375;SDS011;3728;42.266;24.944;2023-04-03T07:12:36;10.90;;;3.77;;
7375;SDS011;3728;42.266;24.944;2023-04-03T07:15:05;6.20;;;3.30;;
7375;SDS011;3728;42.266;24.944;2023-04-03T07:17:33;5.53;;;3.87;;
7375;SDS011;3728;42.266;24.944;2023-04-03T07:20:02;7.43;;;4.07;;
7375;SDS011;3728;42.266;24.944;2023-04-03T07:22:31;11.17;;;4.07;;
7375;SDS011;3728;42.266;24.944;2023-04-03T07:24:59;13.17;;;6.37;;
7375;SDS011;3728;42.266;24.944;2023-04-03T07:27:27;13.53;;;4.47;;
7375;SDS011;3728;42.266;24.944;2023-04-03T07:29:55;12.73;;;3.60;;
7375;SDS011;3728;42.266;24.944;2023-04-03T07:32:22;4.17;;;2.93;;
7375;SDS011;3728;42.266;24.944;2023-04-03T07:34:50;3.33;;;2.60;;
7375;SDS011;3728;42.266;24.944;2023-04-03T07:37:17;52.03;;;43.57;;
7375;SDS011;3728;42.266;24.944;2023-04-03T07:39:45;16.70;;;14.20;;
7375;SDS011;3728;42.266;24.944;2023-04-03T07:42:13;8.53;;;4.90;;
7375;SDS011;3728;42.266;24.944;2023-04-03T07:44:41;8.00;;;5.73;;
7375;SDS011;3728;42.266;24.944;2023-04-03T07:47:09;7.07;;;2.60;;
7375;SDS011;3728;42.266;24.944;2023-04-03T07:49:36;4.73;;;2.53;;
7375;SDS011;3728;42.266;24.944;2023-04-03T07:52:06;4.20;;;2.40;;
7375;SDS011;3728;42.266;24.944;2023-04-03T07:54:35;5.70;;;2.47;;
7375;SDS011;3728;42.266;24.944;2023-04-03T07:57:03;4.20;;;3.63;;
7375;SDS011;3728;42.266;24.944;2023-04-03T07:59:31;17.33;;;15.73;;
7375;SDS011;3728;42.266;24.944;2023-04-03T08:02:01;30.40;;;27.40;;
7375;SDS011;3728;42.266;24.944;2023-04-03T08:04:31;66.83;;;59.93;;
7375;SDS011;3728;42.266;24.944;2023-04-03T08:06:59;157.00;;;98.03;;
7375;SDS011;3728;42.266;24.944;2023-04-03T08:09:27;14.27;;;10.17;;
7375;SDS011;3728;42.266;24.944;2023-04-03T08:11:54;11.87;;;4.67;;
7375;SDS011;3728;42.266;24.944;2023-04-03T08:14:22;10.53;;;4.50;;
7375;SDS011;3728;42.266;24.944;2023-04-03T08:16:49;7.37;;;5.80;;
7375;SDS011;3728;42.266;24.944;2023-04-03T08:19:17;5.90;;;4.97;;
7375;SDS011;3728;42.266;24.944;2023-04-03T08:21:52;6.40;;;3.47;;
7375;SDS011;3728;42.266;24.944;2023-04-03T08:24:21;3.80;;;2.37;;
7375;SDS011;3728;42.266;24.944;2023-04-03T08:26:49;3.80;;;2.30;;
7375;SDS011;3728;42.266;24.944;2023-04-03T08:29:17;2.40;;;2.20;;
7375;SDS011;3728;42.266;24.944;2023-04-03T08:31:45;3.10;;;1.80;;
7375;SDS011;3728;42.266;24.944;2023-04-03T08:34:12;2.07;;;1.73;;
7375;SDS011;3728;42.266;24.944;2023-04-03T08:36:41;3.37;;;2.43;;
7375;SDS011;3728;42.266;24.944;2023-04-03T08:39:09;2.63;;;1.80;;
7375;SDS011;3728;42.266;24.944;2023-04-03T08:47:04;7.23;;;2.30;;
7375;SDS011;3728;42.266;24.944;2023-04-03T08:49:59;3.83;;;1.70;;
7375;SDS011;3728;42.266;24.944;2023-04-03T08:52:34;2.83;;;1.40;;
7375;SDS011;3728;42.266;24.944;2023-04-03T08:55:31;3.50;;;2.00;;
7375;SDS011;3728;42.266;24.944;2023-04-03T08:58:09;5.97;;;2.20;;
7375;SDS011;3728;42.266;24.944;2023-04-03T09:03:24;4.50;;;2.33;;
7375;SDS011;3728;42.266;24.944;2023-04-03T09:05:57;5.63;;;1.87;;
7375;SDS011;3728;42.266;24.944;2023-04-03T09:08:33;5.20;;;2.10;;
7375;SDS011;3728;42.266;24.944;2023-04-03T09:11:23;7.70;;;2.30;;
7375;SDS011;3728;42.266;24.944;2023-04-03T09:13:57;2.83;;;1.77;;
7375;SDS011;3728;42.266;24.944;2023-04-03T09:22:09;1.87;;;1.50;;
7375;SDS011;3728;42.266;24.944;2023-04-03T09:24:45;2.73;;;1.60;;
7375;SDS011;3728;42.266;24.944;2023-04-03T09:27:27;2.47;;;1.60;;
7375;SDS011;3728;42.266;24.944;2023-04-03T09:29:56;3.83;;;1.73;;
7375;SDS011;3728;42.266;24.944;2023-04-03T09:32:26;2.20;;;1.73;;
7375;SDS011;3728;42.266;24.944;2023-04-03T09:34:57;3.13;;;1.63;;
7375;SDS011;3728;42.266;24.944;2023-04-03T09:37:50;3.93;;;1.70;;
7375;SDS011;3728;42.266;24.944;2023-04-03T09:42:55;4.13;;;1.77;;
7375;SDS011;3728;42.266;24.944;2023-04-03T09:45:38;3.80;;;2.23;;
7375;SDS011;3728;42.266;24.944;2023-04-03T09:50:54;8.67;;;2.97;;
7375;SDS011;3728;42.266;24.944;2023-04-03T09:53:32;3.77;;;2.60;;
7375;SDS011;3728;42.266;24.944;2023-04-03T09:56:18;3.40;;;2.80;;
7375;SDS011;3728;42.266;24.944;2023-04-03T09:58:49;7.20;;;3.13;;
7375;SDS011;3728;42.266;24.944;2023-04-03T10:04:05;5.80;;;3.50;;
7375;SDS011;3728;42.266;24.944;2023-04-03T10:06:36;7.40;;;3.30;;
7375;SDS011;3728;42.266;24.944;2023-04-03T10:09:26;4.90;;;3.17;;
7375;SDS011;3728;42.266;24.944;2023-04-03T10:14:39;3.00;;;2.70;;
7375;SDS011;3728;42.266;24.944;2023-04-03T10:20:33;2.80;;;2.37;;
7375;SDS011;3728;42.266;24.944;2023-04-03T10:28:34;5.63;;;3.47;;
7375;SDS011;3728;42.266;24.944;2023-04-03T10:31:23;4.73;;;3.00;;
7375;SDS011;3728;42.266;24.944;2023-04-03T10:43:06;4.20;;;3.10;;
7375;SDS011;3728;42.266;24.944;2023-04-03T10:51:35;5.40;;;3.50;;
7375;SDS011;3728;42.266;24.944;2023-04-03T10:54:11;10.67;;;3.43;;
7375;SDS011;3728;42.266;24.944;2023-04-03T10:57:12;5.80;;;3.30;;
7375;SDS011;3728;42.266;24.944;2023-04-03T11:02:16;10.50;;;3.87;;
7375;SDS011;3728;42.266;24.944;2023-04-03T11:05:02;4.27;;;2.70;;
7375;SDS011;3728;42.266;24.944;2023-04-03T11:07:41;9.07;;;2.37;;
7375;SDS011;3728;42.266;24.944;2023-04-03T11:10:25;5.13;;;2.67;;
7375;SDS011;3728;42.266;24.944;2023-04-03T11:13:14;2.63;;;2.20;;
7375;SDS011;3728;42.266;24.944;2023-04-03T11:16:16;4.77;;;2.53;;
7375;SDS011;3728;42.266;24.944;2023-04-03T11:21:52;3.00;;;2.13;;
7375;SDS011;3728;42.266;24.944;2023-04-03T11:24:27;2.20;;;2.00;;
7375;SDS011;3728;42.266;24.944;2023-04-03T11:26:59;2.27;;;2.07;;
7375;SDS011;3728;42.266;24.944;2023-04-03T11:29:37;5.13;;;1.97;;
7375;SDS011;3728;42.266;24.944;2023-04-03T11:35:32;2.20;;;1.93;;
7375;SDS011;3728;42.266;24.944;2023-04-03T11:38:02;2.50;;;1.80;;
7375;SDS011;3728;42.266;24.944;2023-04-03T11:40:33;4.03;;;2.13;;
7375;SDS011;3728;42.266;24.944;2023-04-03T11:43:18;5.10;;;2.23;;
7375;SDS011;3728;42.266;24.944;2023-04-03T11:53:48;4.10;;;2.77;;
7375;SDS011;3728;42.266;24.944;2023-04-03T11:56:27;4.57;;;2.80;;
7375;SDS011;3728;42.266;24.944;2023-04-03T12:01:45;9.93;;;3.00;;
7375;SDS011;3728;42.266;24.944;2023-04-03T12:04:21;7.57;;;2.87;;
7375;SDS011;3728;42.266;24.944;2023-04-03T12:07:19;6.00;;;3.37;;
7375;SDS011;3728;42.266;24.944;2023-04-03T12:09:56;8.33;;;3.50;;
7375;SDS011;3728;42.266;24.944;2023-04-03T12:12:55;4.70;;;3.37;;
7375;SDS011;3728;42.266;24.944;2023-04-03T12:21:12;4.57;;;3.43;;
7375;SDS011;3728;42.266;24.944;2023-04-03T12:24:01;9.20;;;3.53;;
7375;SDS011;3728;42.266;24.944;2023-04-03T12:29:21;9.67;;;3.47;;
7375;SDS011;3728;42.266;24.944;2023-04-03T12:32:25;5.97;;;3.57;;
7375;SDS011;3728;42.266;24.944;2023-04-03T12:35:35;5.70;;;3.23;;
7375;SDS011;3728;42.266;24.944;2023-04-03T12:38:40;7.37;;;3.50;;
7375;SDS011;3728;42.266;24.944;2023-04-03T12:41:36;5.97;;;3.93;;
7375;SDS011;3728;42.266;24.944;2023-04-03T12:44:40;5.67;;;4.27;;
7375;SDS011;3728;42.266;24.944;2023-04-03T12:47:28;8.93;;;4.53;;
7375;SDS011;3728;42.266;24.944;2023-04-03T12:50:24;7.03;;;5.47;;
7375;SDS011;3728;42.266;24.944;2023-04-03T12:53:15;8.50;;;5.40;;
7375;SDS011;3728;42.266;24.944;2023-04-03T12:56:22;17.77;;;11.10;;
7375;SDS011;3728;42.266;24.944;2023-04-03T13:02:00;8.67;;;5.73;;
7375;SDS011;3728;42.266;24.944;2023-04-03T13:04:43;11.03;;;5.63;;
7375;SDS011;3728;42.266;24.944;2023-04-03T13:07:29;7.63;;;4.70;;
7375;SDS011;3728;42.266;24.944;2023-04-03T13:10:16;16.43;;;10.50;;
7375;SDS011;3728;42.266;24.944;2023-04-03T13:12:57;17.23;;;10.97;;
7375;SDS011;3728;42.266;24.944;2023-04-03T13:15:49;10.07;;;5.50;;
7375;SDS011;3728;42.266;24.944;2023-04-03T13:18:26;7.03;;;5.47;;
7375;SDS011;3728;42.266;24.944;2023-04-03T13:21:13;7.63;;;5.13;;
7375;SDS011;3728;42.266;24.944;2023-04-03T13:23:52;8.70;;;5.00;;
7375;SDS011;3728;42.266;24.944;2023-04-03T13:26:41;6.80;;;4.97;;
7375;SDS011;3728;42.266;24.944;2023-04-03T13:29:19;8.17;;;5.67;;
7375;SDS011;3728;42.266;24.944;2023-04-03T13:32:01;8.30;;;5.73;;
7375;SDS011;3728;42.266;24.944;2023-04-03T13:34:36;8.37;;;5.70;;
7375;SDS011;3728;42.266;24.944;2023-04-03T13:37:30;13.40;;;6.50;;
7375;SDS011;3728;42.266;24.944;2023-04-03T13:42:33;6.70;;;5.40;;
7375;SDS011;3728;42.266;24.944;2023-04-03T13:47:50;11.33;;;7.20;;
7375;SDS011;3728;42.266;24.944;2023-04-03T13:50:58;7.90;;;6.00;;
7375;SDS011;3728;42.266;24.944;2023-04-03T14:04:33;14.40;;;9.93;;
7375;SDS011;3728;42.266;24.944;2023-04-03T14:07:04;26.70;;;16.13;;
7375;SDS011;3728;42.266;24.944;2023-04-03T14:09:33;21.90;;;13.47;;
7375;SDS011;3728;42.266;24.944;2023-04-03T14:12:08;10.97;;;7.20;;
7375;SDS011;3728;42.266;24.944;2023-04-03T14:14:57;12.77;;;7.60;;
7375;SDS011;3728;42.266;24.944;2023-04-03T14:17:30;13.13;;;8.37;;
7375;SDS011;3728;42.266;24.944;2023-04-03T14:19:58;20.00;;;14.27;;
7375;SDS011;3728;42.266;24.944;2023-04-03T14:22:31;30.63;;;16.93;;
7375;SDS011;3728;42.266;24.944;2023-04-03T14:25:02;23.40;;;15.57;;
7375;SDS011;3728;42.266;24.944;2023-04-03T14:27:36;21.03;;;13.63;;
7375;SDS011;3728;42.266;24.944;2023-04-03T14:30:13;26.07;;;14.40;;
7375;SDS011;3728;42.266;24.944;2023-04-03T14:32:47;24.30;;;13.40;;
7375;SDS011;3728;42.266;24.944;2023-04-03T14:35:16;20.70;;;12.23;;
7375;SDS011;3728;42.266;24.944;2023-04-03T14:37:45;17.53;;;10.80;;
7375;SDS011;3728;42.266;24.944;2023-04-03T14:40:16;22.33;;;13.40;;
7375;SDS011;3728;42.266;24.944;2023-04-03T14:42:50;19.00;;;12.97;;
7375;SDS011;3728;42.266;24.944;2023-04-03T14:45:21;15.90;;;10.93;;
7375;SDS011;3728;42.266;24.944;2023-04-03T14:47:51;21.60;;;13.10;;
7375;SDS011;3728;42.266;24.944;2023-04-03T14:50:22;20.97;;;13.47;;
7375;SDS011;3728;42.266;24.944;2023-04-03T14:52:54;20.90;;;12.07;;
7375;SDS011;3728;42.266;24.944;2023-04-03T14:55:26;24.20;;;13.77;;
7375;SDS011;3728;42.266;24.944;2023-04-03T14:57:54;15.37;;;10.17;;
7375;SDS011;3728;42.266;24.944;2023-04-03T15:00:22;12.30;;;8.07;;
7375;SDS011;3728;42.266;24.944;2023-04-03T15:02:50;14.93;;;9.60;;
7375;SDS011;3728;42.266;24.944;2023-04-03T15:05:18;18.33;;;12.63;;
7375;SDS011;3728;42.266;24.944;2023-04-03T15:07:50;12.97;;;7.77;;
7375;SDS011;3728;42.266;24.944;2023-04-03T15:10:25;7.30;;;5.93;;
7375;SDS011;3728;42.266;24.944;2023-04-03T15:12:59;9.40;;;6.20;;
7375;SDS011;3728;42.266;24.944;2023-04-03T15:15:30;9.73;;;6.03;;
7375;SDS011;3728;42.266;24.944;2023-04-03T15:18:07;9.53;;;6.10;;
7375;SDS011;3728;42.266;24.944;2023-04-03T15:20:44;8.90;;;6.47;;
7375;SDS011;3728;42.266;24.944;2023-04-03T15:23:14;7.50;;;5.43;;
7375;SDS011;3728;42.266;24.944;2023-04-03T15:25:44;10.23;;;6.47;;
7375;SDS011;3728;42.266;24.944;2023-04-03T15:31:02;10.93;;;6.57;;
7375;SDS011;3728;42.266;24.944;2023-04-03T15:33:31;11.63;;;6.87;;
7375;SDS011;3728;42.266;24.944;2023-04-03T15:36:01;11.30;;;6.50;;
7375;SDS011;3728;42.266;24.944;2023-04-03T15:38:42;15.57;;;10.77;;
7375;SDS011;3728;42.266;24.944;2023-04-03T15:41:09;34.60;;;23.40;;
7375;SDS011;3728;42.266;24.944;2023-04-03T15:43:37;32.43;;;20.03;;
7375;SDS011;3728;42.266;24.944;2023-04-03T15:46:06;22.37;;;15.50;;
7375;SDS011;3728;42.266;24.944;2023-04-03T15:48:34;11.57;;;7.40;;
7375;SDS011;3728;42.266;24.944;2023-04-03T15:51:04;17.13;;;10.70;;
7375;SDS011;3728;42.266;24.944;2023-04-03T15:53:33;16.63;;;11.00;;
7375;SDS011;3728;42.266;24.944;2023-04-03T15:56:00;17.57;;;12.00;;
7375;SDS011;3728;42.266;24.944;2023-04-03T15:58:28;21.17;;;11.63;;
7375;SDS011;3728;42.266;24.944;2023-04-03T16:00:57;33.40;;;22.30;;
7375;SDS011;3728;42.266;24.944;2023-04-03T16:03:24;34.27;;;21.03;;
7375;SDS011;3728;42.266;24.944;2023-04-03T16:05:52;25.37;;;16.07;;
7375;SDS011;3728;42.266;24.944;2023-04-03T16:08:20;20.00;;;14.83;;
7375;SDS011;3728;42.266;24.944;2023-04-03T16:10:48;31.63;;;13.87;;
7375;SDS011;3728;42.266;24.944;2023-04-03T16:13:20;16.57;;;12.40;;
7375;SDS011;3728;42.266;24.944;2023-04-03T16:15:48;20.60;;;15.17;;
7375;SDS011;3728;42.266;24.944;2023-04-03T16:18:15;16.60;;;14.40;;
7375;SDS011;3728;42.266;24.944;2023-04-03T16:20:44;13.50;;;11.30;;
7375;SDS011;3728;42.266;24.944;2023-04-03T16:23:12;17.47;;;11.83;;
7375;SDS011;3728;42.266;24.944;2023-04-03T16:25:40;14.27;;;8.87;;
7375;SDS011;3728;42.266;24.944;2023-04-03T16:28:13;32.17;;;28.60;;
7375;SDS011;3728;42.266;24.944;2023-04-03T16:30:44;12.13;;;10.30;;
7375;SDS011;3728;42.266;24.944;2023-04-03T16:33:14;11.67;;;8.00;;
7375;SDS011;3728;42.266;24.944;2023-04-03T16:35:47;9.90;;;7.23;;
7375;SDS011;3728;42.266;24.944;2023-04-03T16:38:19;9.77;;;5.77;;
7375;SDS011;3728;42.266;24.944;2023-04-03T16:40:48;10.30;;;8.40;;
7375;SDS011;3728;42.266;24.944;2023-04-03T16:43:16;9.00;;;5.33;;
7375;SDS011;3728;42.266;24.944;2023-04-03T16:45:44;7.60;;;5.50;;
7375;SDS011;3728;42.266;24.944;2023-04-03T16:48:12;9.73;;;6.17;;
7375;SDS011;3728;42.266;24.944;2023-04-03T16:50:40;7.40;;;5.10;;
7375;SDS011;3728;42.266;24.944;2023-04-03T16:53:10;5.70;;;4.63;;
7375;SDS011;3728;42.266;24.944;2023-04-03T16:55:38;5.07;;;4.20;;
7375;SDS011;3728;42.266;24.944;2023-04-03T16:58:06;7.47;;;3.40;;
7375;SDS011;3728;42.266;24.944;2023-04-03T17:00:34;3.30;;;3.00;;
7375;SDS011;3728;42.266;24.944;2023-04-03T17:03:23;5.97;;;3.00;;
7375;SDS011;3728;42.266;24.944;2023-04-03T17:05:55;4.50;;;2.93;;